createdAt,value
2024-03-29T00:00:30.896Z,57.78
2024-03-29T00:01:30.888Z,57.23
2024-03-29T00:02:31.262Z,57.02
2024-03-29T00:03:30.881Z,59.40
2024-03-29T00:04:30.912Z,56.02
2024-03-29T00:05:30.910Z,58.55
2024-03-29T00:06:30.925Z,56.81
2024-03-29T00:07:30.909Z,56.71
2024-03-29T00:08:30.904Z,56.08
2024-03-29T00:09:30.908Z,56.40
2024-03-29T00:10:30.944Z,56.51
2024-03-29T00:11:30.901Z,57.88
2024-03-29T00:12:30.940Z,57.15
2024-03-29T00:13:30.921Z,58.70
2024-03-29T00:14:30.925Z,58.04
2024-03-29T00:15:30.925Z,55.42
2024-03-29T00:16:30.916Z,56.85
2024-03-29T00:17:30.925Z,57.62
2024-03-29T00:18:30.938Z,59.21
2024-03-29T00:19:30.956Z,57.25
2024-03-29T00:20:30.946Z,57.71
2024-03-29T00:21:30.945Z,56.81
2024-03-29T00:22:30.926Z,57.52
2024-03-29T00:23:30.975Z,56.54
2024-03-29T00:24:30.939Z,57.13
2024-03-29T00:25:30.946Z,55.63
2024-03-29T00:26:30.959Z,57.12
2024-03-29T00:27:30.934Z,58.31
2024-03-29T00:28:30.946Z,56.33
2024-03-29T00:29:30.925Z,57.97
2024-03-29T00:30:30.961Z,56.87
2024-03-29T00:31:30.948Z,58.10
2024-03-29T00:32:30.983Z,59.22
2024-03-29T00:33:30.953Z,57.90
2024-03-29T00:34:30.958Z,55.90
2024-03-29T00:35:30.938Z,56.70
2024-03-29T00:36:30.945Z,58.29
2024-03-29T00:37:30.949Z,58.54
2024-03-29T00:38:30.981Z,55.85
2024-03-29T00:39:30.940Z,58.93
2024-03-29T00:40:31.019Z,58.23
2024-03-29T00:41:31.078Z,58.97
2024-03-29T00:42:31.143Z,58.19
2024-03-29T00:43:31.226Z,57.72
2024-03-29T00:44:31.297Z,57.95
2024-03-29T00:45:33.136Z,59.03
2024-03-29T00:46:31.368Z,58.67
2024-03-29T00:47:31.431Z,58.29
2024-03-29T00:48:31.437Z,55.76
2024-03-29T00:49:31.433Z,56.56
2024-03-29T00:50:31.494Z,56.80
2024-03-29T00:51:31.510Z,58.29
2024-03-29T00:52:31.559Z,58.46
2024-03-29T00:53:31.570Z,56.82
2024-03-29T00:54:31.632Z,58.67
2024-03-29T00:55:31.705Z,59.28
2024-03-29T00:56:31.794Z,56.28
2024-03-29T00:57:31.830Z,58.17
2024-03-29T00:58:31.928Z,56.91
2024-03-29T00:59:32.021Z,59.43
2024-03-29T01:00:32.084Z,59.56
2024-03-29T01:01:32.141Z,57.15
2024-03-29T01:02:32.245Z,57.97
2024-03-29T01:03:32.290Z,58.59
2024-03-29T01:04:32.371Z,59.20
2024-03-29T01:05:32.476Z,57.58
2024-03-29T01:06:32.512Z,56.73
2024-03-29T01:07:32.543Z,55.46
2024-03-29T01:08:32.626Z,58.69
2024-03-29T01:09:32.713Z,57.80
2024-03-29T01:10:32.825Z,59.79
2024-03-29T01:11:32.877Z,58.66
2024-03-29T01:12:32.927Z,58.91
2024-03-29T01:13:32.969Z,57.21
2024-03-29T01:14:33.035Z,57.82
2024-03-29T01:15:33.172Z,56.86
2024-03-29T01:16:33.197Z,58.40
2024-03-29T01:17:33.320Z,58.86
2024-03-29T01:18:33.330Z,58.41
2024-03-29T01:19:33.445Z,59.05
2024-03-29T01:20:33.520Z,58.26
2024-03-29T01:21:33.556Z,58.77
2024-03-29T01:22:33.648Z,57.80
2024-03-29T01:23:33.716Z,57.26
2024-03-29T01:24:33.818Z,57.38
2024-03-29T01:25:33.889Z,58.10
2024-03-29T01:26:33.934Z,58.16
2024-03-29T01:27:33.987Z,58.38
2024-03-29T01:28:34.060Z,58.46
2024-03-29T01:29:34.168Z,58.60
2024-03-29T01:30:34.232Z,58.17
2024-03-29T01:31:36.616Z,56.93
2024-03-29T01:32:34.553Z,58.40
2024-03-29T01:33:34.571Z,57.43
2024-03-29T01:34:34.558Z,58.60
2024-03-29T01:35:34.564Z,58.39
2024-03-29T01:36:34.643Z,58.66
2024-03-29T01:37:34.658Z,58.04
2024-03-29T01:38:34.632Z,55.74
2024-03-29T01:39:34.643Z,57.17
2024-03-29T01:40:34.678Z,58.67
2024-03-29T01:41:34.685Z,59.33
2024-03-29T01:42:34.694Z,56.87
2024-03-29T01:43:34.732Z,57.84
2024-03-29T01:44:34.774Z,57.07
2024-03-29T01:45:34.788Z,57.72
2024-03-29T01:46:34.826Z,58.20
2024-03-29T01:47:34.933Z,57.66
2024-03-29T01:48:35.020Z,57.95
2024-03-29T01:49:35.054Z,58.15
2024-03-29T01:50:35.167Z,57.98
2024-03-29T01:51:35.198Z,57.20
2024-03-29T01:52:35.276Z,57.46
2024-03-29T01:53:35.391Z,58.51
2024-03-29T01:54:35.466Z,58.51
2024-03-29T01:55:35.510Z,58.02
2024-03-29T01:56:35.588Z,57.06
2024-03-29T01:57:35.687Z,59.25
2024-03-29T01:58:35.723Z,59.33
2024-03-29T01:59:35.800Z,59.49
2024-03-29T02:00:35.908Z,57.59
2024-03-29T02:01:35.951Z,59.28
2024-03-29T02:02:36.018Z,59.61
2024-03-29T02:03:36.079Z,59.30
2024-03-29T02:04:36.148Z,60.41
2024-03-29T02:05:36.257Z,59.27
2024-03-29T02:06:36.307Z,59.58
2024-03-29T02:07:36.345Z,58.52
2024-03-29T02:08:36.439Z,58.14
2024-03-29T02:09:36.627Z,59.49
2024-03-29T02:10:36.633Z,59.06
2024-03-29T02:11:36.621Z,59.80
2024-03-29T02:12:36.701Z,58.53
2024-03-29T02:13:36.784Z,57.48
2024-03-29T02:14:36.863Z,59.31
2024-03-29T02:15:36.896Z,60.07
2024-03-29T02:16:36.973Z,58.66
2024-03-29T02:17:37.052Z,58.40
2024-03-29T02:18:37.116Z,58.55
2024-03-29T02:19:37.166Z,58.99
2024-03-29T02:20:39.829Z,58.33
2024-03-29T02:21:37.250Z,60.33
2024-03-29T02:22:37.252Z,58.86
2024-03-29T02:23:37.328Z,56.38
2024-03-29T02:24:37.232Z,56.99
2024-03-29T02:25:37.251Z,58.61
2024-03-29T02:26:37.243Z,58.25
2024-03-29T02:27:37.262Z,57.89
2024-03-29T02:28:37.260Z,57.85
2024-03-29T02:29:37.268Z,58.04
2024-03-29T02:30:37.268Z,56.93
2024-03-29T02:31:37.266Z,57.45
2024-03-29T02:32:37.304Z,58.91
2024-03-29T02:33:37.293Z,59.28
2024-03-29T02:34:37.266Z,58.73
2024-03-29T02:35:37.278Z,59.58
2024-03-29T02:36:37.288Z,59.26
2024-03-29T02:37:37.300Z,59.04
2024-03-29T02:38:37.291Z,58.86
2024-03-29T02:39:37.262Z,58.46
2024-03-29T02:40:37.312Z,57.22
2024-03-29T02:41:37.284Z,57.91
2024-03-29T02:42:37.277Z,58.20
2024-03-29T02:43:37.289Z,58.94
2024-03-29T02:44:37.286Z,58.72
2024-03-29T02:45:37.340Z,58.33
2024-03-29T02:46:37.298Z,60.05
2024-03-29T02:47:37.278Z,58.43
2024-03-29T02:48:37.300Z,57.91
2024-03-29T02:49:37.311Z,58.52
2024-03-29T02:50:37.301Z,59.26
2024-03-29T02:51:37.329Z,58.44
2024-03-29T02:52:37.316Z,58.81
2024-03-29T02:53:37.308Z,59.14
2024-03-29T02:54:37.293Z,57.56
2024-03-29T02:55:37.343Z,59.33
2024-03-29T02:56:37.307Z,58.92
2024-03-29T02:57:37.323Z,58.71
2024-03-29T02:58:37.323Z,58.83
2024-03-29T02:59:37.339Z,58.43
2024-03-29T03:00:39.413Z,58.15
2024-03-29T03:01:37.314Z,60.18
2024-03-29T03:02:37.343Z,60.16
2024-03-29T03:03:37.322Z,60.43
2024-03-29T03:04:37.335Z,58.38
2024-03-29T03:05:37.376Z,58.97
2024-03-29T03:06:37.345Z,59.01
2024-03-29T03:07:37.320Z,59.69
2024-03-29T03:08:37.329Z,59.13
2024-03-29T03:09:37.345Z,59.00
2024-03-29T03:10:37.337Z,59.26
2024-03-29T03:11:37.341Z,58.95
2024-03-29T03:12:37.347Z,58.26
2024-03-29T03:13:37.355Z,58.98
2024-03-29T03:14:37.355Z,58.20
2024-03-29T03:15:37.360Z,58.16
2024-03-29T03:16:37.342Z,57.59
2024-03-29T03:17:37.354Z,58.05
2024-03-29T03:18:37.366Z,58.23
2024-03-29T03:19:37.382Z,60.59
2024-03-29T03:20:37.364Z,57.93
2024-03-29T03:21:37.375Z,58.06
2024-03-29T03:22:37.915Z,56.59
2024-03-29T03:23:37.384Z,59.24
2024-03-29T03:24:37.386Z,56.66
2024-03-29T03:25:37.403Z,58.53
2024-03-29T03:26:38.594Z,56.70
2024-03-29T03:27:37.360Z,58.86
2024-03-29T03:28:37.365Z,58.24
2024-03-29T03:29:37.360Z,58.62
2024-03-29T03:30:37.377Z,58.40
2024-03-29T03:31:37.362Z,59.41
2024-03-29T03:32:37.387Z,57.13
2024-03-29T03:33:37.395Z,58.90
2024-03-29T03:34:37.356Z,57.57
2024-03-29T03:35:37.394Z,58.53
2024-03-29T03:36:37.380Z,58.46
2024-03-29T03:37:37.384Z,58.83
2024-03-29T03:38:37.387Z,57.67
2024-03-29T03:39:37.386Z,58.29
2024-03-29T03:40:37.396Z,56.82
2024-03-29T03:41:37.409Z,58.11
2024-03-29T03:42:37.424Z,59.06
2024-03-29T03:43:37.424Z,55.82
2024-03-29T03:44:37.439Z,58.13
2024-03-29T03:45:37.435Z,58.44
2024-03-29T03:46:37.371Z,57.49
2024-03-29T03:47:37.489Z,57.67
2024-03-29T03:48:37.452Z,56.87
2024-03-29T03:49:37.505Z,59.45
2024-03-29T03:50:37.606Z,58.72
2024-03-29T03:51:37.671Z,57.91
2024-03-29T03:52:37.750Z,57.74
2024-03-29T03:53:40.312Z,58.92
2024-03-29T03:54:37.838Z,58.21
2024-03-29T03:55:37.852Z,58.38
2024-03-29T03:56:37.867Z,58.60
2024-03-29T03:57:37.843Z,58.08
2024-03-29T03:58:37.828Z,57.72
2024-03-29T03:59:37.829Z,57.52
2024-03-29T04:00:37.869Z,58.56
2024-03-29T04:01:37.847Z,59.21
2024-03-29T04:02:37.858Z,57.61
2024-03-29T04:03:37.865Z,56.40
2024-03-29T04:04:37.873Z,58.22
2024-03-29T04:05:37.886Z,55.77
2024-03-29T04:06:37.898Z,57.60
2024-03-29T04:07:37.894Z,57.30
2024-03-29T04:08:37.927Z,57.95
2024-03-29T04:09:37.858Z,56.44
2024-03-29T04:10:37.864Z,55.18
2024-03-29T04:11:37.869Z,57.83
2024-03-29T04:12:37.862Z,57.74
2024-03-29T04:13:37.874Z,56.97
2024-03-29T04:14:37.885Z,58.17
2024-03-29T04:15:37.880Z,56.96
2024-03-29T04:16:37.890Z,57.06
2024-03-29T04:17:37.914Z,56.69
2024-03-29T04:18:37.905Z,56.99
2024-03-29T04:19:37.862Z,57.40
2024-03-29T04:20:37.905Z,57.53
2024-03-29T04:21:37.891Z,56.80
2024-03-29T04:22:37.903Z,58.07
2024-03-29T04:23:45.184Z,50.00
2024-03-29T04:24:45.177Z,50.00
2024-03-29T04:25:45.211Z,50.00
2024-03-29T04:26:45.231Z,50.00
2024-03-29T04:27:45.343Z,50.00
2024-03-29T04:28:45.322Z,50.47
2024-03-29T04:29:45.343Z,50.31
2024-03-29T04:30:45.331Z,50.81
2024-03-29T04:31:52.585Z,50.00
2024-03-29T04:32:52.708Z,50.00
2024-03-29T04:33:52.705Z,50.00
2024-03-29T04:34:52.719Z,50.00
2024-03-29T04:35:52.770Z,50.00
2024-03-29T04:36:52.721Z,51.07
2024-03-29T04:37:52.727Z,50.38
2024-03-29T04:38:52.737Z,50.18
2024-03-29T04:39:52.752Z,50.64
2024-03-29T04:40:52.708Z,52.54
2024-03-29T04:41:52.760Z,51.72
2024-03-29T04:42:52.708Z,51.69
2024-03-29T04:43:52.800Z,51.98
2024-03-29T04:44:52.715Z,51.18
2024-03-29T04:45:52.722Z,50.67
2024-03-29T04:46:52.737Z,51.84
2024-03-29T04:47:52.742Z,51.38
2024-03-29T04:48:52.716Z,50.35
2024-03-29T04:49:52.748Z,50.35
2024-03-29T04:50:52.750Z,51.76
2024-03-29T04:51:52.770Z,51.10
2024-03-29T04:52:52.726Z,52.32
2024-03-29T04:53:52.734Z,51.95
2024-03-29T04:54:52.753Z,51.45
2024-03-29T04:55:52.752Z,51.25
2024-03-29T04:56:52.752Z,51.30
2024-03-29T04:57:52.763Z,52.42
2024-03-29T04:58:52.774Z,53.04
2024-03-29T04:59:52.781Z,52.53
2024-03-29T05:00:52.784Z,54.13
2024-03-29T05:01:52.755Z,52.10
2024-03-29T05:02:52.734Z,52.68
2024-03-29T05:03:52.743Z,50.59
2024-03-29T05:04:52.761Z,51.48
2024-03-29T05:05:52.764Z,52.35
2024-03-29T05:06:52.760Z,50.89
2024-03-29T05:07:52.777Z,52.52
2024-03-29T05:08:52.796Z,51.79
2024-03-29T05:09:52.765Z,51.68
2024-03-29T05:10:53.197Z,50.79
2024-03-29T05:11:52.763Z,51.91
2024-03-29T05:12:52.771Z,51.88
2024-03-29T05:13:52.775Z,52.27
2024-03-29T05:14:52.779Z,51.88
2024-03-29T05:15:52.888Z,50.51
2024-03-29T05:16:52.852Z,51.30
2024-03-29T05:17:52.931Z,52.99
2024-03-29T05:18:53.000Z,52.32
2024-03-29T05:19:53.129Z,51.13
2024-03-29T05:20:53.178Z,50.94
2024-03-29T05:21:53.190Z,51.60
2024-03-29T05:22:53.279Z,51.98
2024-03-29T05:23:53.355Z,51.57
2024-03-29T05:24:53.408Z,52.69
2024-03-29T05:25:53.511Z,51.38
2024-03-29T05:26:53.569Z,52.73
2024-03-29T05:27:53.641Z,52.40
2024-03-29T05:28:53.716Z,52.17
2024-03-29T05:29:53.803Z,52.07
2024-03-29T05:30:53.850Z,51.43
2024-03-29T05:31:53.974Z,53.56
2024-03-29T05:32:54.014Z,51.70
2024-03-29T05:33:54.079Z,51.44
2024-03-29T05:34:54.148Z,51.16
2024-03-29T05:35:54.261Z,51.73
2024-03-29T05:36:54.385Z,51.36
2024-03-29T05:37:54.361Z,50.00
2024-03-29T05:38:54.409Z,52.24
2024-03-29T05:39:54.515Z,50.87
2024-03-29T05:40:54.592Z,51.14
2024-03-29T05:41:54.648Z,51.25
2024-03-29T05:42:54.753Z,52.02
2024-03-29T05:43:54.814Z,51.98
2024-03-29T05:44:54.920Z,52.42
2024-03-29T05:45:54.975Z,51.81
2024-03-29T05:46:55.049Z,51.37
2024-03-29T05:47:55.107Z,51.14
2024-03-29T05:48:55.196Z,52.91
2024-03-29T05:49:55.274Z,51.71
2024-03-29T05:50:55.379Z,52.45
2024-03-29T05:51:55.415Z,51.82
2024-03-29T05:52:55.498Z,52.67
2024-03-29T05:53:55.563Z,51.90
2024-03-29T05:54:55.648Z,51.53
2024-03-29T05:55:55.724Z,51.69
2024-03-29T05:56:55.774Z,51.67
2024-03-29T05:57:55.841Z,52.33
2024-03-29T05:58:55.929Z,51.74
2024-03-29T05:59:55.988Z,50.98
2024-03-29T06:00:56.057Z,51.51
2024-03-29T06:01:56.153Z,51.96
2024-03-29T06:02:56.207Z,50.87
2024-03-29T06:03:56.311Z,50.86
2024-03-29T06:04:56.344Z,50.40
2024-03-29T06:05:56.443Z,52.49
2024-03-29T06:06:56.491Z,51.75
2024-03-29T06:07:56.569Z,52.05
2024-03-29T06:08:56.659Z,52.50
2024-03-29T06:09:56.742Z,52.34
2024-03-29T06:10:56.793Z,52.67
2024-03-29T06:11:56.895Z,52.83
2024-03-29T06:12:56.969Z,52.37
2024-03-29T06:13:57.026Z,52.14
2024-03-29T06:14:57.100Z,50.00
2024-03-29T06:15:57.163Z,52.54
2024-03-29T06:16:57.279Z,54.35
2024-03-29T06:17:57.330Z,53.71
2024-03-29T06:18:57.403Z,53.04
2024-03-29T06:19:57.465Z,53.31
2024-03-29T06:20:57.571Z,52.25
2024-03-29T06:21:57.687Z,52.02
2024-03-29T06:22:57.724Z,53.44
2024-03-29T06:23:57.767Z,53.20
2024-03-29T06:24:57.865Z,53.77
2024-03-29T06:25:57.960Z,52.05
2024-03-29T06:26:58.013Z,53.12
2024-03-29T06:27:58.096Z,52.33
2024-03-29T06:28:58.128Z,53.17
2024-03-29T06:29:58.285Z,53.32
2024-03-29T06:30:58.365Z,53.41
2024-03-29T06:31:58.396Z,52.82
2024-03-29T06:32:58.471Z,52.71
2024-03-29T06:33:58.542Z,52.08
2024-03-29T06:34:58.619Z,52.74
2024-03-29T06:35:58.680Z,53.59
2024-03-29T06:36:58.770Z,53.26
2024-03-29T06:37:58.846Z,52.86
2024-03-29T06:38:58.924Z,52.96
2024-03-29T06:39:59.001Z,52.33
2024-03-29T06:40:59.068Z,52.96
2024-03-29T06:41:59.132Z,53.06
2024-03-29T06:42:59.186Z,54.31
2024-03-29T06:43:59.268Z,53.75
2024-03-29T06:44:59.364Z,54.12
2024-03-29T06:45:59.409Z,53.98
2024-03-29T06:46:59.518Z,53.22
2024-03-29T06:47:59.569Z,54.25
2024-03-29T06:48:59.662Z,52.25
2024-03-29T06:49:59.712Z,52.70
2024-03-29T06:50:59.790Z,53.09
2024-03-29T06:51:59.867Z,54.07
2024-03-29T06:52:59.930Z,53.72
2024-03-29T06:53:59.982Z,54.18
2024-03-29T06:55:00.124Z,54.37
2024-03-29T06:56:00.153Z,53.94
2024-03-29T06:57:00.200Z,54.61
2024-03-29T06:58:00.314Z,54.00
2024-03-29T06:59:00.395Z,54.16
2024-03-29T07:00:00.502Z,54.08
2024-03-29T07:01:00.569Z,52.86
2024-03-29T07:02:00.652Z,53.66
2024-03-29T07:03:00.722Z,54.76
2024-03-29T07:04:00.830Z,53.61
2024-03-29T07:05:00.876Z,54.37
2024-03-29T07:06:00.979Z,52.69
2024-03-29T07:07:01.027Z,51.72
2024-03-29T07:08:01.125Z,53.97
2024-03-29T07:09:01.176Z,54.08
2024-03-29T07:10:01.211Z,53.58
2024-03-29T07:11:01.314Z,53.84
2024-03-29T07:12:01.382Z,52.76
2024-03-29T07:13:01.467Z,53.25
2024-03-29T07:14:01.563Z,53.54
2024-03-29T07:15:01.590Z,53.65
2024-03-29T07:16:01.888Z,53.03
2024-03-29T07:17:01.763Z,51.39
2024-03-29T07:18:01.816Z,54.30
2024-03-29T07:19:01.899Z,51.54
2024-03-29T07:20:01.986Z,51.37
2024-03-29T07:21:02.105Z,53.53
2024-03-29T07:22:02.173Z,54.24
2024-03-29T07:23:02.222Z,53.29
2024-03-29T07:24:02.327Z,53.92
2024-03-29T07:25:02.402Z,52.66
2024-03-29T07:26:02.448Z,53.01
2024-03-29T07:27:02.489Z,54.43
2024-03-29T07:28:02.597Z,53.35
2024-03-29T07:29:02.669Z,55.16
2024-03-29T07:30:02.732Z,54.16
2024-03-29T07:31:02.866Z,55.30
2024-03-29T07:32:02.888Z,51.93
2024-03-29T07:33:02.965Z,55.28
2024-03-29T07:34:03.046Z,54.24
2024-03-29T07:35:03.099Z,53.49
2024-03-29T07:36:03.160Z,54.08
2024-03-29T07:37:03.268Z,55.44
2024-03-29T07:38:03.326Z,53.64
2024-03-29T07:39:03.394Z,54.61
2024-03-29T07:40:03.471Z,54.11
2024-03-29T07:41:03.567Z,54.63
2024-03-29T07:42:03.627Z,54.84
2024-03-29T07:43:03.673Z,54.00
2024-03-29T07:44:03.776Z,55.49
2024-03-29T07:45:03.841Z,53.98
2024-03-29T07:46:03.908Z,54.45
2024-03-29T07:47:03.986Z,54.36
2024-03-29T07:48:04.066Z,54.19
2024-03-29T07:49:04.101Z,55.14
2024-03-29T07:50:04.185Z,55.10
2024-03-29T07:51:04.306Z,52.23
2024-03-29T07:52:04.356Z,54.55
2024-03-29T07:53:04.410Z,53.38
2024-03-29T07:54:04.521Z,52.78
2024-03-29T07:55:04.655Z,54.91
2024-03-29T07:56:04.638Z,55.56
2024-03-29T07:57:04.742Z,54.27
2024-03-29T07:58:04.807Z,54.45
2024-03-29T07:59:04.880Z,53.18
2024-03-29T08:00:04.924Z,55.06
2024-03-29T08:01:05.034Z,54.36
2024-03-29T08:02:05.073Z,53.62
2024-03-29T08:03:05.112Z,53.86
2024-03-29T08:04:05.201Z,54.76
2024-03-29T08:05:05.274Z,54.80
2024-03-29T08:06:05.384Z,55.49
2024-03-29T08:07:05.421Z,55.30
2024-03-29T08:08:05.534Z,56.28
2024-03-29T08:09:05.592Z,55.68
2024-03-29T08:10:08.795Z,53.53
2024-03-29T08:11:05.698Z,53.64
2024-03-29T08:12:05.730Z,54.12
2024-03-29T08:13:05.633Z,54.51
2024-03-29T08:14:05.667Z,54.44
2024-03-29T08:15:05.699Z,56.86
2024-03-29T08:16:05.660Z,57.47
2024-03-29T08:17:05.647Z,54.55
2024-03-29T08:18:05.658Z,55.42
2024-03-29T08:19:05.735Z,56.90
2024-03-29T08:20:05.709Z,56.26
2024-03-29T08:21:05.741Z,57.75
2024-03-29T08:22:05.732Z,57.17
2024-03-29T08:23:05.744Z,56.32
2024-03-29T08:24:05.715Z,55.36
2024-03-29T08:25:05.753Z,55.05
2024-03-29T08:26:05.733Z,55.98
2024-03-29T08:27:05.721Z,56.11
2024-03-29T08:28:05.718Z,57.21
2024-03-29T08:29:05.732Z,56.81
2024-03-29T08:30:05.734Z,57.12
2024-03-29T08:31:05.742Z,54.76
2024-03-29T08:32:05.748Z,55.54
2024-03-29T08:33:05.758Z,55.94
2024-03-29T08:34:05.914Z,57.06
2024-03-29T08:35:05.775Z,55.75
2024-03-29T08:36:05.770Z,56.02
2024-03-29T08:37:05.739Z,57.43
2024-03-29T08:38:05.736Z,57.13
2024-03-29T08:39:05.741Z,55.37
2024-03-29T08:40:05.819Z,59.09
2024-03-29T08:41:05.911Z,57.42
2024-03-29T08:42:09.668Z,57.03
2024-03-29T08:43:05.971Z,57.09
2024-03-29T08:44:05.973Z,56.97
2024-03-29T08:45:05.956Z,57.20
2024-03-29T08:46:06.052Z,56.09
2024-03-29T08:47:06.006Z,57.72
2024-03-29T08:48:06.044Z,58.02
2024-03-29T08:49:05.977Z,57.01
2024-03-29T08:50:05.967Z,57.37
2024-03-29T08:51:05.977Z,59.42
2024-03-29T08:52:05.984Z,58.82
2024-03-29T08:53:06.002Z,57.38
2024-03-29T08:54:06.006Z,55.95
2024-03-29T08:55:06.002Z,56.74
2024-03-29T08:56:06.011Z,57.70
2024-03-29T08:57:05.972Z,56.78
2024-03-29T08:58:05.979Z,58.30
2024-03-29T08:59:05.993Z,57.49
2024-03-29T09:00:05.970Z,58.78
2024-03-29T09:01:06.000Z,57.47
2024-03-29T09:02:06.054Z,56.64
2024-03-29T09:03:06.066Z,56.90
2024-03-29T09:04:06.039Z,58.04
2024-03-29T09:05:06.079Z,56.86
2024-03-29T09:06:06.078Z,58.17
2024-03-29T09:07:06.091Z,57.93
2024-03-29T09:08:06.054Z,59.34
2024-03-29T09:09:06.025Z,56.43
2024-03-29T09:10:06.053Z,59.11
2024-03-29T09:11:06.078Z,57.81
2024-03-29T09:12:06.045Z,57.75
2024-03-29T09:13:06.051Z,58.64
2024-03-29T09:14:08.206Z,57.39
2024-03-29T09:15:06.033Z,58.40
2024-03-29T09:16:06.061Z,59.46
2024-03-29T09:17:06.048Z,58.49
2024-03-29T09:18:06.065Z,57.85
2024-03-29T09:19:06.116Z,57.17
2024-03-29T09:20:06.105Z,57.87
2024-03-29T09:21:06.132Z,57.82
2024-03-29T09:22:06.188Z,57.95
2024-03-29T09:23:06.938Z,57.44
2024-03-29T09:24:06.206Z,58.55
2024-03-29T09:25:06.200Z,58.02
2024-03-29T09:26:06.219Z,57.36
2024-03-29T09:27:06.221Z,59.26
2024-03-29T09:28:06.248Z,58.17
2024-03-29T09:29:06.257Z,58.67
2024-03-29T09:30:06.295Z,57.85
2024-03-29T09:31:06.303Z,59.25
2024-03-29T09:32:07.642Z,58.17
2024-03-29T09:33:06.320Z,57.69
2024-03-29T09:34:06.345Z,58.22
2024-03-29T09:35:06.348Z,58.78
2024-03-29T09:36:06.405Z,59.36
2024-03-29T09:37:06.359Z,58.82
2024-03-29T09:38:06.355Z,59.78
2024-03-29T09:39:06.364Z,59.83
2024-03-29T09:40:06.337Z,60.07
2024-03-29T09:41:06.411Z,58.49
2024-03-29T09:42:06.395Z,58.94
2024-03-29T09:43:13.174Z,60.64
2024-03-29T09:44:07.427Z,60.73
2024-03-29T09:45:06.430Z,60.85
2024-03-29T09:46:06.467Z,60.24
2024-03-29T09:47:06.430Z,56.68
2024-03-29T09:48:06.417Z,60.69
2024-03-29T09:49:06.401Z,59.78
2024-03-29T09:50:06.400Z,60.51
2024-03-29T09:51:06.445Z,59.14
2024-03-29T09:52:06.455Z,61.19
2024-03-29T09:53:06.450Z,59.42
2024-03-29T09:54:06.511Z,57.95
2024-03-29T09:55:06.596Z,60.21
2024-03-29T09:56:06.622Z,59.96
2024-03-29T09:57:06.723Z,59.49
2024-03-29T09:58:06.805Z,62.12
2024-03-29T09:59:06.847Z,58.93
2024-03-29T10:00:06.947Z,58.05
2024-03-29T10:01:06.998Z,61.26
2024-03-29T10:02:07.040Z,58.99
2024-03-29T10:03:07.090Z,60.52
2024-03-29T10:04:07.210Z,61.85
2024-03-29T10:05:07.264Z,59.88
2024-03-29T10:06:07.415Z,59.15
2024-03-29T10:07:07.441Z,61.18
2024-03-29T10:08:07.434Z,62.83
2024-03-29T10:09:07.522Z,61.17
2024-03-29T10:10:07.620Z,62.58
2024-03-29T10:11:07.704Z,60.19
2024-03-29T10:12:07.757Z,63.12
2024-03-29T10:13:07.821Z,58.07
2024-03-29T10:14:07.876Z,62.77
2024-03-29T10:15:08.815Z,61.71
2024-03-29T10:16:08.006Z,62.75
2024-03-29T10:17:08.057Z,59.59
2024-03-29T10:18:08.111Z,62.64
2024-03-29T10:19:08.289Z,61.36
2024-03-29T10:20:08.195Z,61.85
2024-03-29T10:21:08.231Z,62.92
2024-03-29T10:22:08.292Z,61.75
2024-03-29T10:23:08.345Z,64.73
2024-03-29T10:24:08.405Z,63.04
2024-03-29T10:25:08.423Z,63.06
2024-03-29T10:26:08.442Z,61.56
2024-03-29T10:27:08.479Z,61.64
2024-03-29T10:28:08.516Z,63.40
2024-03-29T10:29:08.590Z,63.02
2024-03-29T10:30:08.674Z,60.89
2024-03-29T10:31:08.768Z,65.38
2024-03-29T10:32:08.801Z,62.48
2024-03-29T10:33:17.776Z,64.57
2024-03-29T10:34:10.002Z,64.63
2024-03-29T10:35:08.873Z,64.82
2024-03-29T10:36:08.900Z,64.13
2024-03-29T10:37:08.876Z,63.97
2024-03-29T10:38:08.887Z,64.40
2024-03-29T10:39:08.903Z,65.85
2024-03-29T10:40:08.887Z,66.08
2024-03-29T10:41:08.910Z,66.59
2024-03-29T10:42:08.921Z,65.20
2024-03-29T10:43:08.904Z,65.13
2024-03-29T10:44:08.979Z,66.86
2024-03-29T10:45:09.028Z,63.62
2024-03-29T10:46:09.126Z,66.74
2024-03-29T10:47:09.178Z,66.46
2024-03-29T10:48:09.264Z,67.02
2024-03-29T10:49:09.348Z,65.18
2024-03-29T10:50:09.436Z,66.17
2024-03-29T10:51:09.480Z,64.72
2024-03-29T10:52:09.571Z,64.59
2024-03-29T10:53:09.749Z,65.44
2024-03-29T10:55:09.764Z,64.70
2024-03-29T10:56:09.828Z,65.99
2024-03-29T10:57:09.907Z,65.49
2024-03-29T10:58:09.947Z,65.74
2024-03-29T10:59:10.043Z,65.28
2024-03-29T11:00:10.111Z,66.84
2024-03-29T11:01:10.208Z,66.50
2024-03-29T11:02:10.226Z,65.87
2024-03-29T11:03:10.326Z,66.86
2024-03-29T11:04:10.365Z,64.75
2024-03-29T11:05:10.448Z,65.06
2024-03-29T11:06:10.536Z,67.04
2024-03-29T11:07:10.587Z,64.84
2024-03-29T11:08:10.636Z,62.98
2024-03-29T11:09:10.705Z,67.14
2024-03-29T11:10:10.789Z,63.92
2024-03-29T11:11:10.842Z,66.78
2024-03-29T11:12:10.904Z,66.40
2024-03-29T11:13:10.995Z,67.46
2024-03-29T11:14:11.064Z,66.03
2024-03-29T11:15:11.130Z,66.91
2024-03-29T11:16:11.188Z,66.01
2024-03-29T11:17:11.269Z,65.27
2024-03-29T11:18:11.350Z,64.87
2024-03-29T11:19:11.435Z,64.92
2024-03-29T11:20:11.477Z,66.35
2024-03-29T11:21:11.578Z,65.37
2024-03-29T11:22:11.567Z,63.47
2024-03-29T11:23:11.681Z,66.37
2024-03-29T11:24:11.739Z,67.62
2024-03-29T11:25:11.823Z,65.66
2024-03-29T11:26:11.932Z,65.77
2024-03-29T11:27:11.972Z,66.79
2024-03-29T11:28:12.037Z,67.43
2024-03-29T11:29:12.150Z,64.36
2024-03-29T11:30:12.824Z,65.21
2024-03-29T11:31:12.273Z,64.92
2024-03-29T11:32:12.278Z,63.70
2024-03-29T11:33:12.313Z,65.74
2024-03-29T11:34:12.346Z,62.97
2024-03-29T11:35:12.406Z,62.71
2024-03-29T11:36:12.548Z,63.04
2024-03-29T11:37:12.468Z,65.29
2024-03-29T11:38:12.545Z,64.37
2024-03-29T11:39:12.627Z,65.47
2024-03-29T11:40:12.634Z,66.45
2024-03-29T11:41:12.680Z,63.01
2024-03-29T11:42:14.430Z,64.58
2024-03-29T11:43:12.744Z,67.92
2024-03-29T11:44:12.722Z,65.65
2024-03-29T11:45:12.707Z,63.17
2024-03-29T11:46:12.720Z,66.06
2024-03-29T11:47:12.731Z,64.11
2024-03-29T11:48:12.714Z,65.46
2024-03-29T11:49:12.719Z,67.38
2024-03-29T11:50:12.715Z,65.01
2024-03-29T11:51:12.741Z,66.24
2024-03-29T11:52:12.708Z,65.24
2024-03-29T11:53:12.756Z,66.97
2024-03-29T11:54:12.728Z,64.64
2024-03-29T11:55:12.742Z,66.33
2024-03-29T11:56:12.737Z,65.39
2024-03-29T11:57:12.752Z,66.69
2024-03-29T11:58:12.754Z,66.43
2024-03-29T11:59:12.708Z,66.40
2024-03-29T12:00:12.723Z,66.70
2024-03-29T12:01:12.770Z,65.71
2024-03-29T12:02:12.740Z,66.71
2024-03-29T12:03:12.735Z,66.38
2024-03-29T12:04:12.742Z,67.32
2024-03-29T12:05:12.757Z,67.08
2024-03-29T12:06:12.809Z,68.63
2024-03-29T12:07:12.811Z,67.16
2024-03-29T12:08:12.784Z,66.09
2024-03-29T12:09:12.785Z,67.22
2024-03-29T12:10:12.802Z,67.04
2024-03-29T12:11:12.839Z,68.54
2024-03-29T12:12:12.808Z,66.62
2024-03-29T12:13:12.795Z,69.47
2024-03-29T12:14:12.800Z,66.46
2024-03-29T12:15:12.807Z,68.29
2024-03-29T12:16:12.811Z,68.93
2024-03-29T12:17:12.831Z,69.19
2024-03-29T12:18:12.820Z,68.26
2024-03-29T12:19:12.793Z,68.06
2024-03-29T12:20:12.796Z,66.37
2024-03-29T12:21:12.802Z,67.50
2024-03-29T12:22:12.910Z,65.49
2024-03-29T12:23:12.964Z,68.11
2024-03-29T12:24:13.060Z,67.36
2024-03-29T12:25:13.140Z,69.06
2024-03-29T12:26:13.244Z,68.49
2024-03-29T12:27:13.313Z,68.99
2024-03-29T12:28:13.408Z,67.68
2024-03-29T12:29:13.506Z,69.17
2024-03-29T12:30:13.582Z,67.07
2024-03-29T12:31:13.738Z,66.60
2024-03-29T12:32:13.798Z,68.61
2024-03-29T12:33:13.918Z,67.79
2024-03-29T12:34:13.977Z,69.81
2024-03-29T12:35:14.200Z,68.11
2024-03-29T12:36:14.178Z,65.23
2024-03-29T12:37:14.267Z,67.48
2024-03-29T12:38:15.308Z,68.50
2024-03-29T12:39:14.466Z,69.36
2024-03-29T12:40:14.536Z,66.31
2024-03-29T12:41:14.686Z,69.39
2024-03-29T12:42:14.732Z,70.06
2024-03-29T12:43:14.858Z,67.74
2024-03-29T12:44:14.961Z,67.71
2024-03-29T12:45:15.074Z,67.80
2024-03-29T12:46:15.159Z,68.69
2024-03-29T12:47:15.275Z,68.97
2024-03-29T12:48:15.323Z,67.33
2024-03-29T12:49:15.459Z,68.74
2024-03-29T12:50:15.502Z,67.16
2024-03-29T12:51:15.613Z,69.01
2024-03-29T12:52:15.710Z,66.50
2024-03-29T12:53:15.789Z,67.57
2024-03-29T12:54:15.913Z,67.09